Terminal Aerodrome Forecast
Issued by NWS Tulsa, OK

Home | Current Version | Previous Version | Text Only | Print | Product List | Glossary On
Versions: 1 2 3 4 5 6 7 8 9 10 11 12 13 14 15 16 17 18 19
260
FTUS44 KTSA 220524
TAFTUL
TAF
KTUL 220524Z 2206/2306 01007KT P6SM OVC007
     FM220900 03005KT 3SM -FZDZ BR OVC004
     FM221400 05005KT 5SM BR OVC005
     FM221900 09005KT 5SM -RA OVC007
     FM230100 VRB03KT 4SM BR OVC005=

USA.gov is the U.S. government's official web portal to all federal, state and local government web resources and services.